createdAt,value
2018-04-11T00:01:29.749Z,0.40
2018-04-11T00:03:57.210Z,0.40
2018-04-11T00:06:24.666Z,0.40
2018-04-11T00:08:52.104Z,0.40
2018-04-11T00:11:19.542Z,0.40
2018-04-11T00:13:47.775Z,0.30
2018-04-11T00:16:15.216Z,0.30
2018-04-11T00:18:42.669Z,0.40
2018-04-11T00:21:10.120Z,0.30
2018-04-11T00:23:37.571Z,0.40
2018-04-11T00:26:05.017Z,0.40
2018-04-11T00:28:32.493Z,0.50
2018-04-11T00:30:59.948Z,0.40
2018-04-11T00:33:27.479Z,0.30
2018-04-11T00:35:54.985Z,0.40
2018-04-11T00:38:22.557Z,0.37
2018-04-11T00:40:50.002Z,0.40
2018-04-11T00:43:17.469Z,0.40
2018-04-11T00:45:44.922Z,0.40
2018-04-11T00:48:12.371Z,0.40
2018-04-11T00:50:39.822Z,0.30
2018-04-11T00:53:19.073Z,0.30
2018-04-11T00:55:46.527Z,0.40
2018-04-11T00:58:13.964Z,0.40
2018-04-11T01:00:41.408Z,0.40
2018-04-11T01:03:08.873Z,0.40
2018-04-11T01:05:36.322Z,0.30
2018-04-11T01:08:03.769Z,0.40
2018-04-11T01:10:31.225Z,0.37
2018-04-11T01:12:58.730Z,0.40
2018-04-11T01:15:26.142Z,0.40
2018-04-11T01:17:53.605Z,0.40
2018-04-11T01:20:21.052Z,0.30
2018-04-11T01:22:48.497Z,0.40
2018-04-11T01:25:15.974Z,0.30
2018-04-11T01:27:43.421Z,0.30
2018-04-11T01:30:10.861Z,0.40
2018-04-11T01:32:38.335Z,0.40
2018-04-11T01:35:05.779Z,0.40
2018-04-11T01:37:33.223Z,0.40
2018-04-11T01:40:00.681Z,0.50
2018-04-11T01:42:28.131Z,0.40
2018-04-11T01:44:55.562Z,0.40
2018-04-11T01:47:23.024Z,0.40
2018-04-11T01:49:50.457Z,0.43
2018-04-11T01:52:18.672Z,0.40
2018-04-11T01:54:46.138Z,0.40
2018-04-11T01:57:13.585Z,0.40
2018-04-11T01:59:41.015Z,0.40
2018-04-11T02:02:08.468Z,0.50
2018-04-11T02:04:35.920Z,0.50
2018-04-11T02:07:04.135Z,0.30
2018-04-11T02:09:31.584Z,0.40
2018-04-11T02:11:59.045Z,0.40
2018-04-11T02:14:26.492Z,0.40
2018-04-11T02:16:53.946Z,0.40
2018-04-11T02:19:21.392Z,0.40
2018-04-11T02:21:48.856Z,0.40
2018-04-11T02:24:16.336Z,0.40
2018-04-11T02:26:43.785Z,0.40
2018-04-11T02:29:11.244Z,0.40
2018-04-11T02:31:38.685Z,0.40
2018-04-11T02:34:06.132Z,0.40
2018-04-11T02:36:33.597Z,0.40
2018-04-11T02:39:01.049Z,0.40
2018-04-11T02:41:28.498Z,0.57
2018-04-11T02:43:55.955Z,0.30
2018-04-11T02:46:23.401Z,0.40
2018-04-11T02:48:50.852Z,0.30
2018-04-11T02:51:18.316Z,0.40
2018-04-11T02:53:45.766Z,0.30
2018-04-11T02:56:13.266Z,0.30
2018-04-11T02:58:40.721Z,0.30
2018-04-11T03:01:08.178Z,0.40
2018-04-11T03:03:35.638Z,0.40
2018-04-11T03:06:03.107Z,0.37
2018-04-11T03:08:30.559Z,0.30
2018-04-11T03:10:58.008Z,0.30
2018-04-11T03:13:25.467Z,0.40
2018-04-11T03:15:52.910Z,0.40
2018-04-11T03:18:20.356Z,0.40
2018-04-11T03:20:47.825Z,0.30
2018-04-11T03:23:15.262Z,0.37
2018-04-11T03:25:42.727Z,0.40
2018-04-11T03:28:10.162Z,0.40
2018-04-11T03:30:37.610Z,0.40
2018-04-11T03:33:05.064Z,0.40
2018-04-11T03:35:32.539Z,0.40
2018-04-11T03:37:59.977Z,0.40
2018-04-11T03:40:27.420Z,0.40
2018-04-11T03:42:54.876Z,0.30
2018-04-11T03:45:22.333Z,0.40
2018-04-11T03:47:49.785Z,0.30
2018-04-11T03:50:17.242Z,0.40
2018-04-11T03:52:44.688Z,0.40
2018-04-11T03:55:12.130Z,0.40
2018-04-11T03:57:40.350Z,0.40
2018-04-11T04:00:07.798Z,0.40
2018-04-11T04:02:35.248Z,0.40
2018-04-11T04:05:02.718Z,0.30
2018-04-11T04:07:30.169Z,0.40
2018-04-11T04:09:57.617Z,0.30
2018-04-11T04:12:25.614Z,1.03
2018-04-11T04:15:04.985Z,0.53
2018-04-11T04:17:45.004Z,0.57
2018-04-11T04:20:27.204Z,0.57
2018-04-11T04:22:54.734Z,0.40
2018-04-11T04:25:22.976Z,0.50
2018-04-11T04:27:50.458Z,0.40
2018-04-11T04:30:17.910Z,0.50
2018-04-11T04:32:45.366Z,0.50
2018-04-11T04:35:12.808Z,0.40
2018-04-11T04:37:40.264Z,0.50
2018-04-11T04:40:07.717Z,0.40
2018-04-11T04:42:35.159Z,0.40
2018-04-11T04:45:03.408Z,0.40
2018-04-11T04:47:30.837Z,0.40
2018-04-11T04:49:58.292Z,0.40
2018-04-11T04:52:25.754Z,0.30
2018-04-11T04:54:53.199Z,0.40
2018-04-11T04:57:20.647Z,0.40
2018-04-11T04:59:48.103Z,0.40
2018-04-11T05:02:15.564Z,0.40
2018-04-11T05:04:43.000Z,0.30
2018-04-11T05:07:10.465Z,0.30
2018-04-11T05:09:37.922Z,0.40
2018-04-11T05:12:05.374Z,0.47
2018-04-11T05:14:32.886Z,0.40
2018-04-11T05:17:00.304Z,0.30
2018-04-11T05:19:28.500Z,0.30
2018-04-11T05:21:55.961Z,0.40
2018-04-11T05:24:23.397Z,0.40
2018-04-11T05:26:50.850Z,0.30
2018-04-11T05:29:18.318Z,0.30
2018-04-11T05:31:45.778Z,0.47
2018-04-11T05:34:13.222Z,0.40
2018-04-11T05:36:40.703Z,0.40
2018-04-11T05:39:08.140Z,0.37
2018-04-11T05:41:35.583Z,0.40
2018-04-11T05:44:03.054Z,0.30
2018-04-11T05:46:30.498Z,0.37
2018-04-11T05:48:57.936Z,0.40
2018-04-11T05:51:25.398Z,0.50
2018-04-11T05:53:52.839Z,0.40
2018-04-11T05:56:20.276Z,0.40
2018-04-11T05:58:47.778Z,0.30
2018-04-11T06:01:15.182Z,0.40
2018-04-11T06:03:42.668Z,0.40
2018-04-11T06:06:10.129Z,0.40
2018-04-11T06:08:37.575Z,0.33
2018-04-11T06:11:05.025Z,0.40
2018-04-11T06:13:32.509Z,0.30
2018-04-11T06:15:59.949Z,0.40
2018-04-11T06:18:27.397Z,0.40
2018-04-11T06:20:54.858Z,0.30
2018-04-11T06:23:22.303Z,0.40
2018-04-11T06:25:49.761Z,0.40
2018-04-11T06:28:17.217Z,0.40
2018-04-11T06:30:44.662Z,0.40
2018-04-11T06:33:12.110Z,0.40
2018-04-11T06:35:39.573Z,0.30
2018-04-11T06:38:07.020Z,0.30
2018-04-11T06:40:34.462Z,0.40
2018-04-11T06:43:02.704Z,0.30
2018-04-11T06:45:30.144Z,0.40
2018-04-11T06:47:57.580Z,0.30
2018-04-11T06:50:25.113Z,0.30
2018-04-11T06:52:52.556Z,0.40
2018-04-11T06:55:20.776Z,0.37
2018-04-11T06:57:48.233Z,0.40
2018-04-11T07:00:15.685Z,0.30
2018-04-11T07:02:43.134Z,0.40
2018-04-11T07:05:10.589Z,0.40
2018-04-11T07:07:38.042Z,0.30
2018-04-11T07:10:05.483Z,0.40
2018-04-11T07:12:32.935Z,0.30
2018-04-11T07:15:00.412Z,0.40
2018-04-11T07:17:27.849Z,0.30
2018-04-11T07:19:55.338Z,0.30
2018-04-11T07:22:22.744Z,0.40
2018-04-11T07:24:50.953Z,0.30
2018-04-11T07:27:18.409Z,0.40
2018-04-11T07:29:46.614Z,0.30
2018-04-11T07:32:14.135Z,0.30
2018-04-11T07:34:41.574Z,0.40
2018-04-11T07:37:09.015Z,0.47
2018-04-11T07:39:37.238Z,0.40
2018-04-11T07:42:04.689Z,0.40
2018-04-11T07:44:32.129Z,0.40
2018-04-11T07:46:59.585Z,0.30
2018-04-11T07:49:27.020Z,0.40
2018-04-11T07:51:54.458Z,0.40
2018-04-11T07:54:22.668Z,0.33
2018-04-11T07:56:50.100Z,0.40
2018-04-11T07:59:17.596Z,0.37
2018-04-11T08:01:45.053Z,0.80
2018-04-11T08:04:12.505Z,0.40
2018-04-11T08:06:39.959Z,0.80
2018-04-11T08:09:07.405Z,0.50
2018-04-11T08:11:34.868Z,0.40
2018-04-11T08:14:02.323Z,0.40
2018-04-11T08:16:29.777Z,0.40
2018-04-11T08:18:57.897Z,0.40
2018-04-11T08:21:26.114Z,0.40
2018-04-11T08:23:53.077Z,0.40
2018-04-11T08:26:20.521Z,0.40
2018-04-11T08:28:47.956Z,0.40
2018-04-11T08:31:15.424Z,0.37
2018-04-11T08:33:42.871Z,0.83
2018-04-11T08:36:10.325Z,0.50
2018-04-11T08:38:37.783Z,0.40
2018-04-11T08:41:05.218Z,0.50
2018-04-11T08:43:32.695Z,0.67
2018-04-11T08:46:00.149Z,0.50
2018-04-11T08:48:28.357Z,0.50
2018-04-11T08:50:55.801Z,0.90
2018-04-11T08:53:23.244Z,0.50
2018-04-11T08:55:50.694Z,0.47
2018-04-11T08:58:18.145Z,0.70
2018-04-11T09:00:45.608Z,0.50
2018-04-11T09:03:13.057Z,0.40
2018-04-11T09:05:40.510Z,0.70
2018-04-11T09:08:07.958Z,0.63
2018-04-11T09:10:35.407Z,0.67
2018-04-11T09:13:02.853Z,0.87
2018-04-11T09:15:31.070Z,0.80
2018-04-11T09:17:58.510Z,0.93
2018-04-11T09:20:25.948Z,0.93
2018-04-11T09:22:53.446Z,0.60
2018-04-11T09:25:20.884Z,0.77
2018-04-11T09:27:48.347Z,0.53
2018-04-11T09:30:15.790Z,0.87
2018-04-11T09:32:43.229Z,0.40
2018-04-11T09:35:10.680Z,0.87
2018-04-11T09:37:38.113Z,0.50
2018-04-11T09:40:06.316Z,0.50
2018-04-11T09:42:33.792Z,0.83
2018-04-11T09:45:01.216Z,0.50
2018-04-11T09:47:28.662Z,0.67
2018-04-11T09:49:56.887Z,0.60
2018-04-11T09:52:24.326Z,0.90
2018-04-11T09:54:51.769Z,0.90
2018-04-11T09:57:19.235Z,0.70
2018-04-11T09:59:46.676Z,0.93
2018-04-11T10:02:19.783Z,0.80
2018-04-11T10:04:47.217Z,0.80
2018-04-11T10:07:14.725Z,0.77
2018-04-11T10:09:42.185Z,0.70
2018-04-11T10:12:09.637Z,0.60
2018-04-11T10:14:37.085Z,0.87
2018-04-11T10:17:04.566Z,0.57
2018-04-11T10:19:32.048Z,0.60
2018-04-11T10:22:00.256Z,0.57
2018-04-11T10:24:27.720Z,0.90
2018-04-11T10:26:55.165Z,0.43
2018-04-11T10:29:22.632Z,0.70
2018-04-11T10:31:50.102Z,0.50
2018-04-11T10:34:17.547Z,0.40
2018-04-11T10:36:44.985Z,0.50
2018-04-11T10:39:12.447Z,0.60
2018-04-11T10:41:39.899Z,0.60
2018-04-11T10:44:07.351Z,0.90
2018-04-11T10:46:34.816Z,0.70
2018-04-11T10:49:02.258Z,0.60
2018-04-11T10:51:29.713Z,0.60
2018-04-11T10:53:57.177Z,0.80
2018-04-11T10:56:24.611Z,0.50
2018-04-11T10:58:52.048Z,0.57
2018-04-11T11:01:19.508Z,0.50
2018-04-11T11:03:46.962Z,0.40
2018-04-11T11:06:15.173Z,0.53
2018-04-11T11:08:42.648Z,0.50
2018-04-11T11:11:10.084Z,0.50
2018-04-11T11:13:37.530Z,0.70
2018-04-11T11:16:04.987Z,0.67
2018-04-11T11:18:32.454Z,0.60
2018-04-11T11:20:59.895Z,0.60
2018-04-11T11:23:27.373Z,0.50
2018-04-11T11:25:54.952Z,0.60
2018-04-11T11:28:22.388Z,0.70
2018-04-11T11:30:49.855Z,0.50
2018-04-11T11:33:17.304Z,0.60
2018-04-11T11:35:44.746Z,0.70
2018-04-11T11:38:12.205Z,0.60
2018-04-11T11:40:39.660Z,0.80
2018-04-11T11:43:07.105Z,0.60
2018-04-11T11:45:34.574Z,0.60
2018-04-11T11:48:02.018Z,0.60
2018-04-11T11:50:29.452Z,0.80
2018-04-11T11:52:56.918Z,0.50
2018-04-11T11:55:24.365Z,0.40
2018-04-11T11:57:51.852Z,0.50
2018-04-11T12:00:19.325Z,0.57
2018-04-11T12:02:46.772Z,0.40
2018-04-11T12:05:14.245Z,0.70
2018-04-11T12:07:41.719Z,0.60
2018-04-11T12:10:09.940Z,0.70
2018-04-11T12:12:37.396Z,0.50
2018-04-11T12:15:04.866Z,0.57
2018-04-11T12:17:32.309Z,0.90
2018-04-11T12:19:59.767Z,0.80
2018-04-11T12:22:27.244Z,0.50
2018-04-11T12:24:54.705Z,0.57
2018-04-11T12:27:22.155Z,0.80
2018-04-11T12:29:49.619Z,0.50
2018-04-11T12:32:17.085Z,0.50
2018-04-11T12:34:44.600Z,0.80
2018-04-11T12:37:12.044Z,0.40
2018-04-11T12:39:39.490Z,0.57
2018-04-11T12:42:06.933Z,1.03
2018-04-11T12:44:35.147Z,0.70
2018-04-11T12:47:02.588Z,0.60
2018-04-11T12:49:30.041Z,0.50
2018-04-11T12:51:57.496Z,0.50
2018-04-11T12:54:24.945Z,0.60
2018-04-11T12:56:52.395Z,0.40
2018-04-11T12:59:19.833Z,1.03
2018-04-11T13:01:48.059Z,0.97
2018-04-11T13:04:15.516Z,1.10
2018-04-11T13:06:42.941Z,0.50
2018-04-11T13:09:10.409Z,0.60
2018-04-11T13:11:37.866Z,0.80
2018-04-11T13:14:05.311Z,0.50
2018-04-11T13:16:32.769Z,0.80
2018-04-11T13:19:00.204Z,0.90
2018-04-11T13:21:27.674Z,0.70
2018-04-11T13:23:55.154Z,0.80
2018-04-11T13:26:22.601Z,1.20
2018-04-11T13:28:50.037Z,0.50
2018-04-11T13:31:17.496Z,0.30
2018-04-11T13:33:44.943Z,0.40
2018-04-11T13:36:12.403Z,0.60
2018-04-11T13:38:39.861Z,0.63
2018-04-11T13:41:07.315Z,0.97
2018-04-11T13:43:34.783Z,0.73
2018-04-11T13:46:02.234Z,1.13
2018-04-11T13:48:29.683Z,1.40
2018-04-11T13:50:57.135Z,0.70
2018-04-11T13:53:24.608Z,0.80
2018-04-11T13:55:52.062Z,1.43
2018-04-11T13:58:19.529Z,0.90
2018-04-11T14:00:46.980Z,1.03
2018-04-11T14:03:14.457Z,0.87
2018-04-11T14:05:41.905Z,0.70
2018-04-11T14:08:09.354Z,0.70
2018-04-11T14:10:36.796Z,0.83
2018-04-11T14:13:04.264Z,0.80
2018-04-11T14:15:31.718Z,0.80
2018-04-11T14:17:59.926Z,0.70
2018-04-11T14:20:27.375Z,0.47
2018-04-11T14:22:54.824Z,0.60
2018-04-11T14:25:22.324Z,0.80
2018-04-11T14:27:49.755Z,0.47
2018-04-11T14:30:17.261Z,0.83
2018-04-11T14:32:45.433Z,0.73
2018-04-11T14:35:12.881Z,0.63
2018-04-11T14:37:40.328Z,0.63
2018-04-11T14:40:07.804Z,0.67
2018-04-11T14:42:35.265Z,0.70
2018-04-11T14:45:02.711Z,0.80
2018-04-11T14:47:30.911Z,0.90
2018-04-11T14:49:58.373Z,1.63
2018-04-11T14:52:25.826Z,1.10
2018-04-11T14:54:53.271Z,0.83
2018-04-11T14:57:20.727Z,0.80
2018-04-11T14:59:48.166Z,0.53
2018-04-11T15:02:15.615Z,0.57
2018-04-11T15:04:43.072Z,0.60
2018-04-11T15:07:10.513Z,0.57
2018-04-11T15:09:37.989Z,0.53
2018-04-11T15:12:05.442Z,0.63
2018-04-11T15:14:32.889Z,0.60
2018-04-11T15:17:01.091Z,0.50
2018-04-11T15:19:28.545Z,0.80
2018-04-11T15:21:55.997Z,1.00
2018-04-11T15:24:23.444Z,0.80
2018-04-11T15:26:50.916Z,0.70
2018-04-11T15:29:18.369Z,0.60
2018-04-11T15:31:45.814Z,0.50
2018-04-11T15:34:13.271Z,0.83
2018-04-11T15:36:40.725Z,0.90
2018-04-11T15:39:08.172Z,0.63
2018-04-11T15:41:35.657Z,0.80
2018-04-11T15:44:03.083Z,0.70
2018-04-11T15:46:36.022Z,0.60
2018-04-11T15:49:04.223Z,0.73
2018-04-11T15:51:31.660Z,0.80
2018-04-11T15:53:59.884Z,0.57
2018-04-11T15:56:27.341Z,1.00
2018-04-11T15:58:54.779Z,0.83
2018-04-11T16:01:22.235Z,0.67
2018-04-11T16:03:49.712Z,0.53
2018-04-11T16:06:17.598Z,0.47
2018-04-11T16:08:45.049Z,1.00
2018-04-11T16:11:12.521Z,1.10
2018-04-11T16:13:45.087Z,0.70
2018-04-11T16:16:12.525Z,0.57
2018-04-11T16:18:39.974Z,0.70
2018-04-11T16:21:07.432Z,0.60
2018-04-11T16:23:34.881Z,0.57
2018-04-11T16:26:03.141Z,0.77
2018-04-11T16:28:30.588Z,0.90
2018-04-11T16:30:58.086Z,0.90
2018-04-11T16:33:25.475Z,0.70
2018-04-11T16:35:53.709Z,0.90
2018-04-11T16:38:21.148Z,0.70
2018-04-11T16:40:48.600Z,0.93
2018-04-11T16:43:16.058Z,1.23
2018-04-11T16:45:43.501Z,0.80
2018-04-11T16:48:10.945Z,0.60
2018-04-11T16:50:38.419Z,1.10
2018-04-11T16:53:06.633Z,0.97
2018-04-11T16:55:34.092Z,0.90
2018-04-11T16:58:01.550Z,0.70
2018-04-11T17:00:29.006Z,0.50
2018-04-11T17:02:57.254Z,1.13
2018-04-11T17:05:24.721Z,0.70
2018-04-11T17:07:52.169Z,0.90
2018-04-11T17:10:19.615Z,1.00
2018-04-11T17:12:47.087Z,0.80
2018-04-11T17:15:14.530Z,1.20
2018-04-11T17:17:41.976Z,1.10
2018-04-11T17:20:09.453Z,0.80
2018-04-11T17:22:48.658Z,0.70
2018-04-11T17:25:27.940Z,0.80
2018-04-11T17:28:08.016Z,0.83
2018-04-11T17:30:47.436Z,1.03
2018-04-11T17:33:15.643Z,0.97
2018-04-11T17:35:43.090Z,1.10
2018-04-11T17:38:10.553Z,0.87
2018-04-11T17:40:37.995Z,0.60
2018-04-11T17:43:05.451Z,0.77
2018-04-11T17:45:32.906Z,0.60
2018-04-11T17:48:00.361Z,0.60
2018-04-11T17:50:27.825Z,0.60
2018-04-11T17:52:55.316Z,0.60
2018-04-11T17:55:22.739Z,0.67
2018-04-11T17:57:50.190Z,0.40
2018-04-11T18:00:17.641Z,0.60
2018-04-11T18:02:45.110Z,0.40
2018-04-11T18:05:12.582Z,0.70
2018-04-11T18:07:40.052Z,0.80
2018-04-11T18:10:07.503Z,0.67
2018-04-11T18:12:34.947Z,0.90
2018-04-11T18:15:02.563Z,0.50
2018-04-11T18:17:30.770Z,0.43
2018-04-11T18:19:58.213Z,0.50
2018-04-11T18:22:25.680Z,0.50
2018-04-11T18:24:53.108Z,0.53
2018-04-11T18:27:20.549Z,0.50
2018-04-11T18:29:48.776Z,0.43
2018-04-11T18:32:16.226Z,0.50
2018-04-11T18:34:43.674Z,0.67
2018-04-11T18:37:11.148Z,0.40
2018-04-11T18:39:38.642Z,1.20
2018-04-11T18:42:06.045Z,1.70
2018-04-11T18:44:33.533Z,1.97
2018-04-11T18:47:00.983Z,1.43
2018-04-11T18:49:28.452Z,2.03
2018-04-11T18:51:55.909Z,1.63
2018-04-11T18:54:23.498Z,2.67
2018-04-11T18:56:51.003Z,2.73
2018-04-11T18:59:18.469Z,1.80
2018-04-11T19:01:47.191Z,1.23
2018-04-11T19:04:15.394Z,3.03
2018-04-11T19:06:42.849Z,2.40
2018-04-11T19:09:10.289Z,2.50
2018-04-11T19:11:37.730Z,1.60
2018-04-11T19:14:05.191Z,3.40
2018-04-11T19:16:32.624Z,2.20
2018-04-11T19:19:00.079Z,4.40
2018-04-11T19:21:28.313Z,4.60
2018-04-11T19:23:55.752Z,1.97
2018-04-11T19:26:23.953Z,4.03
2018-04-11T19:28:52.383Z,3.17
2018-04-11T19:31:19.838Z,2.70
2018-04-11T19:33:47.290Z,2.30
2018-04-11T19:36:15.516Z,2.50
2018-04-11T19:38:42.976Z,1.50
2018-04-11T19:41:10.413Z,3.67
2018-04-11T19:43:37.881Z,1.70
2018-04-11T19:46:05.322Z,1.53
2018-04-11T19:48:32.768Z,2.50
2018-04-11T19:51:00.235Z,3.87
2018-04-11T19:53:27.698Z,2.23
2018-04-11T19:55:55.118Z,1.60
2018-04-11T19:58:22.572Z,2.10
2018-04-11T20:00:50.022Z,2.80
2018-04-11T20:03:17.456Z,3.60
2018-04-11T20:05:45.701Z,2.80
2018-04-11T20:08:13.159Z,2.83
2018-04-11T20:10:40.602Z,2.30
2018-04-11T20:13:08.061Z,2.73
2018-04-11T20:15:35.681Z,3.53
2018-04-11T20:18:03.132Z,2.87
2018-04-11T20:20:30.600Z,2.53
2018-04-11T20:22:58.084Z,2.80
2018-04-11T20:25:26.260Z,2.37
2018-04-11T20:27:53.717Z,3.23
2018-04-11T20:30:21.165Z,3.53
2018-04-11T20:32:48.605Z,2.43
2018-04-11T20:35:16.079Z,2.20
2018-04-11T20:37:43.552Z,2.87
2018-04-11T20:40:10.995Z,2.23
2018-04-11T20:42:38.446Z,2.37
2018-04-11T20:45:05.910Z,3.47
2018-04-11T20:47:33.349Z,4.23
2018-04-11T20:50:00.824Z,2.27
2018-04-11T20:52:28.293Z,2.27
2018-04-11T20:54:55.730Z,2.03
2018-04-11T20:57:23.197Z,2.33
2018-04-11T20:59:50.685Z,3.70
2018-04-11T21:02:18.918Z,4.60
2018-04-11T21:04:46.377Z,4.60
2018-04-11T21:07:13.850Z,2.70
2018-04-11T21:09:41.280Z,3.30
2018-04-11T21:12:08.716Z,2.67
2018-04-11T21:14:36.169Z,3.93
2018-04-11T21:17:03.645Z,3.17
2018-04-11T21:19:31.083Z,3.00
2018-04-11T21:21:58.551Z,3.33
2018-04-11T21:24:26.007Z,4.40
2018-04-11T21:26:53.454Z,3.50
2018-04-11T21:29:20.918Z,3.10
2018-04-11T21:31:48.365Z,2.13
2018-04-11T21:34:15.821Z,2.30
2018-04-11T21:36:43.273Z,3.93
2018-04-11T21:39:10.729Z,3.20
2018-04-11T21:41:38.172Z,3.10
2018-04-11T21:44:05.631Z,3.03
2018-04-11T21:46:33.078Z,5.17
2018-04-11T21:49:00.525Z,3.00
2018-04-11T21:51:27.985Z,3.17
2018-04-11T21:53:55.435Z,2.53
2018-04-11T21:56:24.595Z,2.70
2018-04-11T21:58:52.033Z,2.50
2018-04-11T22:01:19.497Z,3.47
2018-04-11T22:03:46.929Z,3.03
2018-04-11T22:06:14.409Z,3.03
2018-04-11T22:08:41.869Z,3.30
2018-04-11T22:11:09.303Z,2.90
2018-04-11T22:13:36.748Z,2.30
2018-04-11T22:16:04.203Z,2.40
2018-04-11T22:18:31.661Z,3.37
2018-04-11T22:20:59.114Z,2.80
2018-04-11T22:23:26.580Z,2.73
2018-04-11T22:25:54.022Z,3.50
2018-04-11T22:28:21.466Z,2.67
2018-04-11T22:30:48.929Z,3.20
2018-04-11T22:33:16.388Z,3.97
2018-04-11T22:35:43.829Z,2.97
2018-04-11T22:38:11.282Z,4.10
2018-04-11T22:40:38.741Z,5.30
2018-04-11T22:43:06.181Z,3.10
2018-04-11T22:45:34.409Z,4.60
2018-04-11T22:48:01.853Z,3.30
2018-04-11T22:50:29.337Z,3.50
2018-04-11T22:52:57.547Z,3.40
2018-04-11T22:55:24.986Z,4.27
2018-04-11T22:57:53.220Z,3.77
2018-04-11T23:00:20.700Z,3.00
2018-04-11T23:02:48.162Z,3.53
2018-04-11T23:05:15.622Z,3.20
2018-04-11T23:07:43.060Z,3.43
2018-04-11T23:10:10.506Z,2.73
2018-04-11T23:12:37.953Z,2.60
2018-04-11T23:15:05.398Z,1.83
2018-04-11T23:17:32.864Z,3.40
2018-04-11T23:20:00.330Z,2.47
2018-04-11T23:22:27.782Z,1.87
2018-04-11T23:24:55.252Z,2.50
2018-04-11T23:27:22.694Z,2.70
2018-04-11T23:29:50.159Z,2.63
2018-04-11T23:32:17.596Z,5.20
2018-04-11T23:34:45.082Z,3.37
2018-04-11T23:37:12.519Z,2.03
2018-04-11T23:39:39.957Z,2.20
2018-04-11T23:42:07.417Z,2.47
2018-04-11T23:44:34.860Z,2.27
2018-04-11T23:47:02.324Z,1.83
2018-04-11T23:49:29.769Z,1.27
2018-04-11T23:51:57.249Z,1.10
2018-04-11T23:54:24.693Z,1.60
2018-04-11T23:56:52.134Z,1.30
2018-04-11T23:59:19.611Z,1.20
